sensor_id;sensor_type;location;lat;lon;timestamp;P1;durP1;ratioP1;P2;durP2;ratioP2
12784;SDS011;6456;42.680;23.260;2023-07-13T00:01:45;4.40;;;4.00;;
12784;SDS011;6456;42.680;23.260;2023-07-13T00:04:14;5.85;;;3.97;;
12784;SDS011;6456;42.680;23.260;2023-07-13T00:06:43;7.22;;;4.22;;
12784;SDS011;6456;42.680;23.260;2023-07-13T00:09:11;4.90;;;3.90;;
12784;SDS011;6456;42.680;23.260;2023-07-13T00:11:38;5.63;;;3.78;;
12784;SDS011;6456;42.680;23.260;2023-07-13T00:14:06;5.30;;;3.75;;
12784;SDS011;6456;42.680;23.260;2023-07-13T00:16:33;6.18;;;3.97;;
12784;SDS011;6456;42.680;23.260;2023-07-13T00:19:01;4.53;;;4.13;;
12784;SDS011;6456;42.680;23.260;2023-07-13T00:21:28;5.25;;;4.20;;
12784;SDS011;6456;42.680;23.260;2023-07-13T00:23:56;5.70;;;4.50;;
12784;SDS011;6456;42.680;23.260;2023-07-13T00:26:25;4.93;;;4.03;;
12784;SDS011;6456;42.680;23.260;2023-07-13T00:28:53;5.95;;;4.50;;
12784;SDS011;6456;42.680;23.260;2023-07-13T00:31:20;4.63;;;4.22;;
12784;SDS011;6456;42.680;23.260;2023-07-13T00:33:47;6.18;;;4.10;;
12784;SDS011;6456;42.680;23.260;2023-07-13T00:36:14;5.93;;;4.35;;
12784;SDS011;6456;42.680;23.260;2023-07-13T00:38:41;5.15;;;4.40;;
12784;SDS011;6456;42.680;23.260;2023-07-13T00:41:09;4.60;;;4.20;;
12784;SDS011;6456;42.680;23.260;2023-07-13T00:43:36;8.18;;;4.78;;
12784;SDS011;6456;42.680;23.260;2023-07-13T00:46:20;9.60;;;5.53;;
12784;SDS011;6456;42.680;23.260;2023-07-13T00:48:49;6.97;;;5.20;;
12784;SDS011;6456;42.680;23.260;2023-07-13T00:51:18;7.70;;;4.80;;
12784;SDS011;6456;42.680;23.260;2023-07-13T00:53:49;7.63;;;5.65;;
12784;SDS011;6456;42.680;23.260;2023-07-13T00:56:18;10.15;;;6.30;;
12784;SDS011;6456;42.680;23.260;2023-07-13T00:58:45;7.28;;;5.72;;
12784;SDS011;6456;42.680;23.260;2023-07-13T01:01:13;6.97;;;5.50;;
12784;SDS011;6456;42.680;23.260;2023-07-13T01:03:39;10.00;;;6.28;;
12784;SDS011;6456;42.680;23.260;2023-07-13T01:06:06;7.07;;;6.32;;
12784;SDS011;6456;42.680;23.260;2023-07-13T01:08:34;7.30;;;6.13;;
12784;SDS011;6456;42.680;23.260;2023-07-13T01:11:00;8.00;;;5.97;;
12784;SDS011;6456;42.680;23.260;2023-07-13T01:13:29;5.82;;;5.28;;
12784;SDS011;6456;42.680;23.260;2023-07-13T01:15:56;7.88;;;5.80;;
12784;SDS011;6456;42.680;23.260;2023-07-13T01:18:29;6.53;;;5.70;;
12784;SDS011;6456;42.680;23.260;2023-07-13T01:20:58;6.70;;;5.75;;
12784;SDS011;6456;42.680;23.260;2023-07-13T01:23:27;9.45;;;5.85;;
12784;SDS011;6456;42.680;23.260;2023-07-13T01:25:56;7.40;;;5.90;;
12784;SDS011;6456;42.680;23.260;2023-07-13T01:28:23;9.23;;;5.93;;
12784;SDS011;6456;42.680;23.260;2023-07-13T01:30:53;5.88;;;5.22;;
12784;SDS011;6456;42.680;23.260;2023-07-13T01:33:21;5.60;;;5.03;;
12784;SDS011;6456;42.680;23.260;2023-07-13T01:35:48;6.72;;;5.30;;
12784;SDS011;6456;42.680;23.260;2023-07-13T01:38:17;8.40;;;5.35;;
12784;SDS011;6456;42.680;23.260;2023-07-13T01:40:45;8.80;;;5.50;;
12784;SDS011;6456;42.680;23.260;2023-07-13T01:43:12;7.90;;;5.50;;
12784;SDS011;6456;42.680;23.260;2023-07-13T01:45:40;13.50;;;5.47;;
12784;SDS011;6456;42.680;23.260;2023-07-13T01:48:08;8.05;;;5.35;;
12784;SDS011;6456;42.680;23.260;2023-07-13T01:50:36;8.93;;;7.15;;
12784;SDS011;6456;42.680;23.260;2023-07-13T01:53:03;10.70;;;7.78;;
12784;SDS011;6456;42.680;23.260;2023-07-13T01:55:32;8.05;;;6.43;;
12784;SDS011;6456;42.680;23.260;2023-07-13T01:58:00;8.30;;;5.38;;
12784;SDS011;6456;42.680;23.260;2023-07-13T02:00:27;8.07;;;6.93;;
12784;SDS011;6456;42.680;23.260;2023-07-13T02:02:54;8.18;;;6.07;;
12784;SDS011;6456;42.680;23.260;2023-07-13T02:05:20;9.05;;;6.05;;
12784;SDS011;6456;42.680;23.260;2023-07-13T02:07:47;7.72;;;5.80;;
12784;SDS011;6456;42.680;23.260;2023-07-13T02:10:15;9.63;;;5.32;;
12784;SDS011;6456;42.680;23.260;2023-07-13T02:12:43;9.50;;;5.97;;
12784;SDS011;6456;42.680;23.260;2023-07-13T02:15:11;7.32;;;5.75;;
12784;SDS011;6456;42.680;23.260;2023-07-13T02:17:39;6.63;;;5.90;;
12784;SDS011;6456;42.680;23.260;2023-07-13T02:20:06;8.55;;;5.18;;
12784;SDS011;6456;42.680;23.260;2023-07-13T02:22:34;10.98;;;7.22;;
12784;SDS011;6456;42.680;23.260;2023-07-13T02:25:01;7.75;;;6.32;;
12784;SDS011;6456;42.680;23.260;2023-07-13T02:27:28;6.57;;;5.88;;
12784;SDS011;6456;42.680;23.260;2023-07-13T02:29:57;6.50;;;5.85;;
12784;SDS011;6456;42.680;23.260;2023-07-13T02:32:23;10.00;;;6.03;;
12784;SDS011;6456;42.680;23.260;2023-07-13T02:34:51;8.02;;;5.45;;
12784;SDS011;6456;42.680;23.260;2023-07-13T02:37:18;8.35;;;5.78;;
12784;SDS011;6456;42.680;23.260;2023-07-13T02:39:46;6.78;;;6.07;;
12784;SDS011;6456;42.680;23.260;2023-07-13T02:42:14;8.27;;;6.10;;
12784;SDS011;6456;42.680;23.260;2023-07-13T02:44:41;7.25;;;5.47;;
12784;SDS011;6456;42.680;23.260;2023-07-13T02:47:09;7.25;;;5.45;;
12784;SDS011;6456;42.680;23.260;2023-07-13T02:49:36;7.90;;;5.93;;
12784;SDS011;6456;42.680;23.260;2023-07-13T02:52:03;10.13;;;6.13;;
12784;SDS011;6456;42.680;23.260;2023-07-13T02:54:30;6.72;;;5.68;;
12784;SDS011;6456;42.680;23.260;2023-07-13T02:56:57;6.72;;;5.63;;
12784;SDS011;6456;42.680;23.260;2023-07-13T02:59:24;6.38;;;5.32;;
12784;SDS011;6456;42.680;23.260;2023-07-13T03:01:51;9.97;;;5.73;;
12784;SDS011;6456;42.680;23.260;2023-07-13T03:04:20;8.25;;;5.85;;
12784;SDS011;6456;42.680;23.260;2023-07-13T03:06:47;6.50;;;5.90;;
12784;SDS011;6456;42.680;23.260;2023-07-13T03:09:14;10.98;;;6.50;;
12784;SDS011;6456;42.680;23.260;2023-07-13T03:11:40;8.98;;;5.72;;
12784;SDS011;6456;42.680;23.260;2023-07-13T03:14:09;9.05;;;6.03;;
12784;SDS011;6456;42.680;23.260;2023-07-13T03:16:36;7.47;;;6.13;;
12784;SDS011;6456;42.680;23.260;2023-07-13T03:19:02;9.77;;;6.50;;
12784;SDS011;6456;42.680;23.260;2023-07-13T03:21:31;8.02;;;6.43;;
12784;SDS011;6456;42.680;23.260;2023-07-13T03:23:58;10.02;;;6.57;;
12784;SDS011;6456;42.680;23.260;2023-07-13T03:26:25;8.27;;;6.07;;
12784;SDS011;6456;42.680;23.260;2023-07-13T03:28:52;10.90;;;6.40;;
12784;SDS011;6456;42.680;23.260;2023-07-13T03:31:19;7.80;;;5.93;;
12784;SDS011;6456;42.680;23.260;2023-07-13T03:33:47;8.23;;;6.03;;
12784;SDS011;6456;42.680;23.260;2023-07-13T03:36:15;7.63;;;6.38;;
12784;SDS011;6456;42.680;23.260;2023-07-13T03:38:47;6.75;;;6.05;;
12784;SDS011;6456;42.680;23.260;2023-07-13T03:41:14;6.82;;;6.13;;
12784;SDS011;6456;42.680;23.260;2023-07-13T03:43:41;9.48;;;6.20;;
12784;SDS011;6456;42.680;23.260;2023-07-13T03:46:08;7.80;;;6.93;;
12784;SDS011;6456;42.680;23.260;2023-07-13T03:48:36;8.43;;;6.65;;
12784;SDS011;6456;42.680;23.260;2023-07-13T03:51:05;7.95;;;6.03;;
12784;SDS011;6456;42.680;23.260;2023-07-13T03:53:32;15.82;;;7.68;;
12784;SDS011;6456;42.680;23.260;2023-07-13T03:56:00;14.15;;;7.03;;
12784;SDS011;6456;42.680;23.260;2023-07-13T03:58:28;9.43;;;7.07;;
12784;SDS011;6456;42.680;23.260;2023-07-13T04:00:59;9.45;;;6.88;;
12784;SDS011;6456;42.680;23.260;2023-07-13T04:03:27;10.38;;;6.68;;
12784;SDS011;6456;42.680;23.260;2023-07-13T04:05:57;10.52;;;7.00;;
12784;SDS011;6456;42.680;23.260;2023-07-13T04:08:25;13.00;;;7.38;;
12784;SDS011;6456;42.680;23.260;2023-07-13T04:10:53;14.05;;;7.72;;
12784;SDS011;6456;42.680;23.260;2023-07-13T04:13:22;25.33;;;9.10;;
12784;SDS011;6456;42.680;23.260;2023-07-13T04:15:49;28.73;;;10.10;;
12784;SDS011;6456;42.680;23.260;2023-07-13T04:18:16;19.98;;;9.02;;
12784;SDS011;6456;42.680;23.260;2023-07-13T04:20:43;9.93;;;8.05;;
12784;SDS011;6456;42.680;23.260;2023-07-13T04:23:10;9.88;;;8.18;;
12784;SDS011;6456;42.680;23.260;2023-07-13T04:25:37;11.57;;;8.32;;
12784;SDS011;6456;42.680;23.260;2023-07-13T04:28:04;12.20;;;8.13;;
12784;SDS011;6456;42.680;23.260;2023-07-13T04:30:33;11.90;;;7.88;;
12784;SDS011;6456;42.680;23.260;2023-07-13T04:33:01;9.88;;;7.72;;
12784;SDS011;6456;42.680;23.260;2023-07-13T04:35:27;9.13;;;8.23;;
12784;SDS011;6456;42.680;23.260;2023-07-13T04:37:54;9.02;;;8.07;;
12784;SDS011;6456;42.680;23.260;2023-07-13T04:40:21;12.23;;;9.27;;
12784;SDS011;6456;42.680;23.260;2023-07-13T04:42:48;13.68;;;9.27;;
12784;SDS011;6456;42.680;23.260;2023-07-13T04:45:15;11.73;;;8.75;;
12784;SDS011;6456;42.680;23.260;2023-07-13T04:47:43;10.43;;;8.57;;
12784;SDS011;6456;42.680;23.260;2023-07-13T04:50:12;14.30;;;9.77;;
12784;SDS011;6456;42.680;23.260;2023-07-13T04:52:40;14.40;;;11.38;;
12784;SDS011;6456;42.680;23.260;2023-07-13T04:55:08;11.85;;;10.18;;
12784;SDS011;6456;42.680;23.260;2023-07-13T04:57:34;17.58;;;10.90;;
12784;SDS011;6456;42.680;23.260;2023-07-13T05:00:01;13.48;;;9.93;;
12784;SDS011;6456;42.680;23.260;2023-07-13T05:02:30;13.02;;;9.63;;
12784;SDS011;6456;42.680;23.260;2023-07-13T05:04:59;13.38;;;10.30;;
12784;SDS011;6456;42.680;23.260;2023-07-13T05:07:26;12.30;;;9.88;;
12784;SDS011;6456;42.680;23.260;2023-07-13T05:09:54;9.82;;;8.73;;
12784;SDS011;6456;42.680;23.260;2023-07-13T05:12:21;10.35;;;9.15;;
12784;SDS011;6456;42.680;23.260;2023-07-13T05:14:48;9.10;;;8.20;;
12784;SDS011;6456;42.680;23.260;2023-07-13T05:17:15;9.77;;;7.70;;
12784;SDS011;6456;42.680;23.260;2023-07-13T05:19:42;10.02;;;7.13;;
12784;SDS011;6456;42.680;23.260;2023-07-13T05:22:12;9.57;;;7.50;;
12784;SDS011;6456;42.680;23.260;2023-07-13T05:24:39;10.43;;;7.75;;
12784;SDS011;6456;42.680;23.260;2023-07-13T05:27:06;8.52;;;7.40;;
12784;SDS011;6456;42.680;23.260;2023-07-13T05:29:34;10.82;;;8.02;;
12784;SDS011;6456;42.680;23.260;2023-07-13T05:32:01;9.60;;;8.60;;
12784;SDS011;6456;42.680;23.260;2023-07-13T05:34:28;12.30;;;8.27;;
12784;SDS011;6456;42.680;23.260;2023-07-13T05:36:55;11.07;;;8.20;;
12784;SDS011;6456;42.680;23.260;2023-07-13T05:39:23;13.20;;;8.27;;
12784;SDS011;6456;42.680;23.260;2023-07-13T05:41:51;13.00;;;9.00;;
12784;SDS011;6456;42.680;23.260;2023-07-13T05:44:18;12.30;;;8.68;;
12784;SDS011;6456;42.680;23.260;2023-07-13T05:46:45;16.35;;;9.30;;
12784;SDS011;6456;42.680;23.260;2023-07-13T05:49:12;14.40;;;8.93;;
12784;SDS011;6456;42.680;23.260;2023-07-13T05:51:38;11.35;;;9.00;;
12784;SDS011;6456;42.680;23.260;2023-07-13T05:54:05;12.50;;;9.60;;
12784;SDS011;6456;42.680;23.260;2023-07-13T05:56:33;14.13;;;9.25;;
12784;SDS011;6456;42.680;23.260;2023-07-13T05:59:00;13.48;;;9.18;;
12784;SDS011;6456;42.680;23.260;2023-07-13T06:01:27;13.38;;;9.25;;
12784;SDS011;6456;42.680;23.260;2023-07-13T06:03:56;20.02;;;10.32;;
12784;SDS011;6456;42.680;23.260;2023-07-13T06:06:22;15.40;;;8.95;;
12784;SDS011;6456;42.680;23.260;2023-07-13T06:08:49;9.95;;;8.40;;
12784;SDS011;6456;42.680;23.260;2023-07-13T06:11:17;13.38;;;8.88;;
12784;SDS011;6456;42.680;23.260;2023-07-13T06:13:46;10.15;;;8.45;;
12784;SDS011;6456;42.680;23.260;2023-07-13T06:16:13;9.82;;;8.02;;
12784;SDS011;6456;42.680;23.260;2023-07-13T06:18:41;10.40;;;8.35;;
12784;SDS011;6456;42.680;23.260;2023-07-13T06:21:08;10.50;;;8.20;;
12784;SDS011;6456;42.680;23.260;2023-07-13T06:23:35;9.07;;;8.18;;
12784;SDS011;6456;42.680;23.260;2023-07-13T06:26:03;9.57;;;8.57;;
12784;SDS011;6456;42.680;23.260;2023-07-13T06:28:31;12.00;;;9.68;;
12784;SDS011;6456;42.680;23.260;2023-07-13T06:31:01;12.10;;;9.15;;
12784;SDS011;6456;42.680;23.260;2023-07-13T06:33:27;9.35;;;7.53;;
12784;SDS011;6456;42.680;23.260;2023-07-13T06:35:54;12.55;;;8.77;;
12784;SDS011;6456;42.680;23.260;2023-07-13T06:38:21;12.00;;;8.57;;
12784;SDS011;6456;42.680;23.260;2023-07-13T06:40:48;11.00;;;8.75;;
12784;SDS011;6456;42.680;23.260;2023-07-13T06:43:15;13.68;;;9.13;;
12784;SDS011;6456;42.680;23.260;2023-07-13T06:45:43;12.48;;;8.98;;
12784;SDS011;6456;42.680;23.260;2023-07-13T06:48:16;11.50;;;9.00;;
12784;SDS011;6456;42.680;23.260;2023-07-13T06:50:43;10.77;;;8.85;;
12784;SDS011;6456;42.680;23.260;2023-07-13T06:53:11;10.82;;;9.15;;
12784;SDS011;6456;42.680;23.260;2023-07-13T06:55:39;13.77;;;9.63;;
12784;SDS011;6456;42.680;23.260;2023-07-13T06:58:06;10.95;;;9.80;;
12784;SDS011;6456;42.680;23.260;2023-07-13T07:00:35;12.13;;;9.65;;
12784;SDS011;6456;42.680;23.260;2023-07-13T07:03:02;13.13;;;9.60;;
12784;SDS011;6456;42.680;23.260;2023-07-13T07:05:30;12.43;;;9.90;;
12784;SDS011;6456;42.680;23.260;2023-07-13T07:07:58;10.95;;;9.13;;
12784;SDS011;6456;42.680;23.260;2023-07-13T07:10:29;22.95;;;9.93;;
12784;SDS011;6456;42.680;23.260;2023-07-13T07:12:56;14.43;;;10.35;;
12784;SDS011;6456;42.680;23.260;2023-07-13T07:15:23;10.68;;;8.88;;
12784;SDS011;6456;42.680;23.260;2023-07-13T07:17:50;15.73;;;9.70;;
12784;SDS011;6456;42.680;23.260;2023-07-13T07:20:17;9.77;;;8.43;;
12784;SDS011;6456;42.680;23.260;2023-07-13T07:22:45;10.70;;;9.23;;
12784;SDS011;6456;42.680;23.260;2023-07-13T07:25:12;10.57;;;8.68;;
12784;SDS011;6456;42.680;23.260;2023-07-13T07:27:39;11.02;;;8.52;;
12784;SDS011;6456;42.680;23.260;2023-07-13T07:30:06;15.65;;;9.80;;
12784;SDS011;6456;42.680;23.260;2023-07-13T07:32:34;13.02;;;9.32;;
12784;SDS011;6456;42.680;23.260;2023-07-13T07:35:00;16.23;;;9.98;;
12784;SDS011;6456;42.680;23.260;2023-07-13T07:37:27;14.77;;;9.20;;
12784;SDS011;6456;42.680;23.260;2023-07-13T07:39:55;14.15;;;9.93;;
12784;SDS011;6456;42.680;23.260;2023-07-13T07:42:22;14.57;;;9.95;;
12784;SDS011;6456;42.680;23.260;2023-07-13T07:44:49;17.50;;;9.95;;
12784;SDS011;6456;42.680;23.260;2023-07-13T07:47:16;16.58;;;10.10;;
12784;SDS011;6456;42.680;23.260;2023-07-13T07:49:43;12.57;;;9.20;;
12784;SDS011;6456;42.680;23.260;2023-07-13T07:52:09;14.27;;;9.40;;
12784;SDS011;6456;42.680;23.260;2023-07-13T07:54:36;19.33;;;9.52;;
12784;SDS011;6456;42.680;23.260;2023-07-13T07:57:05;12.32;;;9.13;;
12784;SDS011;6456;42.680;23.260;2023-07-13T07:59:33;20.30;;;10.05;;
12784;SDS011;6456;42.680;23.260;2023-07-13T08:02:00;12.45;;;9.57;;
12784;SDS011;6456;42.680;23.260;2023-07-13T08:04:27;14.35;;;9.43;;
12784;SDS011;6456;42.680;23.260;2023-07-13T08:06:54;13.32;;;9.25;;
12784;SDS011;6456;42.680;23.260;2023-07-13T08:09:22;11.10;;;9.07;;
12784;SDS011;6456;42.680;23.260;2023-07-13T08:11:49;9.32;;;8.32;;
12784;SDS011;6456;42.680;23.260;2023-07-13T08:14:18;10.88;;;8.10;;
12784;SDS011;6456;42.680;23.260;2023-07-13T08:16:45;17.75;;;9.48;;
12784;SDS011;6456;42.680;23.260;2023-07-13T08:19:12;11.40;;;8.73;;
12784;SDS011;6456;42.680;23.260;2023-07-13T08:21:39;9.15;;;7.90;;
12784;SDS011;6456;42.680;23.260;2023-07-13T08:24:07;12.52;;;7.82;;
12784;SDS011;6456;42.680;23.260;2023-07-13T08:26:35;9.43;;;8.27;;
12784;SDS011;6456;42.680;23.260;2023-07-13T08:29:02;11.68;;;7.97;;
12784;SDS011;6456;42.680;23.260;2023-07-13T08:31:31;11.65;;;8.70;;
12784;SDS011;6456;42.680;23.260;2023-07-13T08:33:58;11.35;;;7.75;;
12784;SDS011;6456;42.680;23.260;2023-07-13T08:36:25;9.75;;;7.50;;
12784;SDS011;6456;42.680;23.260;2023-07-13T08:38:52;11.88;;;7.88;;
12784;SDS011;6456;42.680;23.260;2023-07-13T08:41:19;9.93;;;8.43;;
12784;SDS011;6456;42.680;23.260;2023-07-13T08:43:47;9.27;;;7.85;;
12784;SDS011;6456;42.680;23.260;2023-07-13T08:46:18;10.43;;;7.93;;
12784;SDS011;6456;42.680;23.260;2023-07-13T08:48:52;13.85;;;7.88;;
12784;SDS011;6456;42.680;23.260;2023-07-13T08:51:24;9.32;;;7.90;;
12784;SDS011;6456;42.680;23.260;2023-07-13T08:53:58;13.18;;;8.77;;
12784;SDS011;6456;42.680;23.260;2023-07-13T08:56:29;13.73;;;8.48;;
12784;SDS011;6456;42.680;23.260;2023-07-13T08:59:00;10.18;;;8.32;;
12784;SDS011;6456;42.680;23.260;2023-07-13T09:01:33;10.20;;;7.97;;
12784;SDS011;6456;42.680;23.260;2023-07-13T09:04:16;15.65;;;7.90;;
12784;SDS011;6456;42.680;23.260;2023-07-13T09:06:55;10.48;;;8.43;;
12784;SDS011;6456;42.680;23.260;2023-07-13T09:09:31;8.77;;;7.47;;
12784;SDS011;6456;42.680;23.260;2023-07-13T09:12:09;9.40;;;7.78;;
12784;SDS011;6456;42.680;23.260;2023-07-13T09:14:44;11.30;;;7.82;;
12784;SDS011;6456;42.680;23.260;2023-07-13T09:17:16;10.35;;;8.38;;
12784;SDS011;6456;42.680;23.260;2023-07-13T09:19:48;9.30;;;8.20;;
12784;SDS011;6456;42.680;23.260;2023-07-13T09:22:25;9.98;;;7.53;;
12784;SDS011;6456;42.680;23.260;2023-07-13T09:24:57;9.60;;;8.02;;
12784;SDS011;6456;42.680;23.260;2023-07-13T09:27:30;13.88;;;8.30;;
12784;SDS011;6456;42.680;23.260;2023-07-13T09:30:08;14.50;;;8.80;;
12784;SDS011;6456;42.680;23.260;2023-07-13T09:32:52;10.73;;;8.15;;
12784;SDS011;6456;42.680;23.260;2023-07-13T09:35:23;12.50;;;8.35;;
12784;SDS011;6456;42.680;23.260;2023-07-13T09:37:56;10.20;;;8.48;;
12784;SDS011;6456;42.680;23.260;2023-07-13T09:40:27;7.50;;;6.57;;
12784;SDS011;6456;42.680;23.260;2023-07-13T09:43:02;6.32;;;5.10;;
12784;SDS011;6456;42.680;23.260;2023-07-13T09:45:33;8.07;;;4.95;;
12784;SDS011;6456;42.680;23.260;2023-07-13T09:48:03;6.75;;;4.93;;
12784;SDS011;6456;42.680;23.260;2023-07-13T09:50:34;4.85;;;4.45;;
12784;SDS011;6456;42.680;23.260;2023-07-13T09:53:02;6.45;;;4.82;;
12784;SDS011;6456;42.680;23.260;2023-07-13T09:55:32;4.53;;;4.13;;
12784;SDS011;6456;42.680;23.260;2023-07-13T09:58:04;8.00;;;4.82;;
12784;SDS011;6456;42.680;23.260;2023-07-13T10:00:35;5.07;;;4.57;;
12784;SDS011;6456;42.680;23.260;2023-07-13T10:03:05;4.95;;;4.43;;
12784;SDS011;6456;42.680;23.260;2023-07-13T10:05:44;6.75;;;4.80;;
12784;SDS011;6456;42.680;23.260;2023-07-13T10:08:20;8.05;;;4.90;;
12784;SDS011;6456;42.680;23.260;2023-07-13T10:10:53;7.18;;;4.95;;
12784;SDS011;6456;42.680;23.260;2023-07-13T10:13:26;7.90;;;4.55;;
12784;SDS011;6456;42.680;23.260;2023-07-13T10:15:55;6.25;;;4.70;;
12784;SDS011;6456;42.680;23.260;2023-07-13T10:18:25;7.18;;;4.57;;
12784;SDS011;6456;42.680;23.260;2023-07-13T10:20:55;10.45;;;4.82;;
12784;SDS011;6456;42.680;23.260;2023-07-13T10:23:35;6.80;;;4.38;;
12784;SDS011;6456;42.680;23.260;2023-07-13T10:26:02;5.82;;;4.25;;
12784;SDS011;6456;42.680;23.260;2023-07-13T10:28:31;7.40;;;4.50;;
12784;SDS011;6456;42.680;23.260;2023-07-13T10:31:02;7.18;;;4.80;;
12784;SDS011;6456;42.680;23.260;2023-07-13T10:33:36;9.48;;;4.57;;
12784;SDS011;6456;42.680;23.260;2023-07-13T10:36:22;5.95;;;4.60;;
12784;SDS011;6456;42.680;23.260;2023-07-13T10:38:55;5.85;;;4.57;;
12784;SDS011;6456;42.680;23.260;2023-07-13T10:41:26;10.57;;;5.00;;
12784;SDS011;6456;42.680;23.260;2023-07-13T10:43:57;7.18;;;4.55;;
12784;SDS011;6456;42.680;23.260;2023-07-13T10:46:28;5.38;;;4.07;;
12784;SDS011;6456;42.680;23.260;2023-07-13T10:48:57;10.15;;;5.22;;
12784;SDS011;6456;42.680;23.260;2023-07-13T10:51:27;6.55;;;4.90;;
12784;SDS011;6456;42.680;23.260;2023-07-13T10:56:43;6.38;;;4.53;;
12784;SDS011;6456;42.680;23.260;2023-07-13T10:59:11;9.07;;;5.07;;
12784;SDS011;6456;42.680;23.260;2023-07-13T11:01:49;5.93;;;4.88;;
12784;SDS011;6456;42.680;23.260;2023-07-13T11:04:20;6.15;;;4.50;;
12784;SDS011;6456;42.680;23.260;2023-07-13T11:06:50;8.32;;;5.22;;
12784;SDS011;6456;42.680;23.260;2023-07-13T11:09:33;5.00;;;4.60;;
12784;SDS011;6456;42.680;23.260;2023-07-13T11:12:09;5.38;;;4.88;;
12784;SDS011;6456;42.680;23.260;2023-07-13T11:15:01;6.63;;;4.65;;
12784;SDS011;6456;42.680;23.260;2023-07-13T11:17:37;8.23;;;5.20;;
12784;SDS011;6456;42.680;23.260;2023-07-13T11:20:24;6.80;;;4.95;;
12784;SDS011;6456;42.680;23.260;2023-07-13T11:25:57;6.35;;;5.00;;
12784;SDS011;6456;42.680;23.260;2023-07-13T11:28:27;6.40;;;5.38;;
12784;SDS011;6456;42.680;23.260;2023-07-13T11:31:01;6.10;;;5.03;;
12784;SDS011;6456;42.680;23.260;2023-07-13T11:36:30;6.25;;;5.30;;
12784;SDS011;6456;42.680;23.260;2023-07-13T11:39:04;7.30;;;5.10;;
12784;SDS011;6456;42.680;23.260;2023-07-13T11:41:42;6.32;;;5.38;;
12784;SDS011;6456;42.680;23.260;2023-07-13T11:44:13;8.98;;;5.25;;
12784;SDS011;6456;42.680;23.260;2023-07-13T11:46:44;7.53;;;4.68;;
12784;SDS011;6456;42.680;23.260;2023-07-13T11:49:15;7.95;;;5.00;;
12784;SDS011;6456;42.680;23.260;2023-07-13T11:51:43;8.68;;;5.45;;
12784;SDS011;6456;42.680;23.260;2023-07-13T11:54:19;7.05;;;4.57;;
12784;SDS011;6456;42.680;23.260;2023-07-13T11:56:51;5.55;;;4.40;;
12784;SDS011;6456;42.680;23.260;2023-07-13T11:59:19;5.55;;;4.97;;
12784;SDS011;6456;42.680;23.260;2023-07-13T12:01:50;7.30;;;4.68;;
12784;SDS011;6456;42.680;23.260;2023-07-13T12:04:21;8.70;;;5.10;;
12784;SDS011;6456;42.680;23.260;2023-07-13T12:07:02;5.20;;;4.70;;
12784;SDS011;6456;42.680;23.260;2023-07-13T12:09:33;5.90;;;4.38;;
12784;SDS011;6456;42.680;23.260;2023-07-13T12:12:01;10.98;;;4.47;;
12784;SDS011;6456;42.680;23.260;2023-07-13T12:14:33;5.80;;;4.32;;
12784;SDS011;6456;42.680;23.260;2023-07-13T12:17:05;4.85;;;4.38;;
12784;SDS011;6456;42.680;23.260;2023-07-13T12:19:42;6.00;;;4.20;;
12784;SDS011;6456;42.680;23.260;2023-07-13T12:22:12;5.30;;;4.80;;
12784;SDS011;6456;42.680;23.260;2023-07-13T12:24:42;5.57;;;4.43;;
12784;SDS011;6456;42.680;23.260;2023-07-13T12:27:16;5.32;;;4.80;;
12784;SDS011;6456;42.680;23.260;2023-07-13T12:29:49;6.40;;;4.60;;
12784;SDS011;6456;42.680;23.260;2023-07-13T12:32:19;7.50;;;4.80;;
12784;SDS011;6456;42.680;23.260;2023-07-13T12:34:52;7.50;;;4.57;;
12784;SDS011;6456;42.680;23.260;2023-07-13T12:37:21;5.90;;;4.20;;
12784;SDS011;6456;42.680;23.260;2023-07-13T12:39:52;7.07;;;4.40;;
12784;SDS011;6456;42.680;23.260;2023-07-13T12:42:25;6.82;;;4.75;;
12784;SDS011;6456;42.680;23.260;2023-07-13T12:44:53;5.30;;;4.50;;
12784;SDS011;6456;42.680;23.260;2023-07-13T12:47:23;6.20;;;4.72;;
12784;SDS011;6456;42.680;23.260;2023-07-13T12:49:52;7.57;;;4.45;;
12784;SDS011;6456;42.680;23.260;2023-07-13T12:52:23;5.90;;;4.43;;
12784;SDS011;6456;42.680;23.260;2023-07-13T12:55:01;6.20;;;4.55;;
12784;SDS011;6456;42.680;23.260;2023-07-13T12:57:31;9.18;;;5.00;;
12784;SDS011;6456;42.680;23.260;2023-07-13T12:59:58;8.60;;;4.47;;
12784;SDS011;6456;42.680;23.260;2023-07-13T13:02:29;8.80;;;4.68;;
12784;SDS011;6456;42.680;23.260;2023-07-13T13:05:04;7.53;;;4.57;;
12784;SDS011;6456;42.680;23.260;2023-07-13T13:07:32;8.52;;;4.97;;
12784;SDS011;6456;42.680;23.260;2023-07-13T13:10:00;10.30;;;4.43;;
12784;SDS011;6456;42.680;23.260;2023-07-13T13:12:27;6.88;;;4.45;;
12784;SDS011;6456;42.680;23.260;2023-07-13T13:14:54;7.75;;;4.15;;
12784;SDS011;6456;42.680;23.260;2023-07-13T13:17:22;9.82;;;4.40;;
12784;SDS011;6456;42.680;23.260;2023-07-13T13:19:55;8.70;;;4.30;;
12784;SDS011;6456;42.680;23.260;2023-07-13T13:22:22;4.13;;;3.72;;
12784;SDS011;6456;42.680;23.260;2023-07-13T13:24:49;8.13;;;4.18;;
12784;SDS011;6456;42.680;23.260;2023-07-13T13:27:18;10.40;;;4.43;;
12784;SDS011;6456;42.680;23.260;2023-07-13T13:29:48;7.32;;;4.38;;
12784;SDS011;6456;42.680;23.260;2023-07-13T13:32:16;5.63;;;4.35;;
12784;SDS011;6456;42.680;23.260;2023-07-13T13:34:46;10.38;;;4.30;;
12784;SDS011;6456;42.680;23.260;2023-07-13T13:37:19;6.35;;;4.20;;
12784;SDS011;6456;42.680;23.260;2023-07-13T13:39:47;7.78;;;4.35;;
12784;SDS011;6456;42.680;23.260;2023-07-13T13:42:14;6.50;;;4.35;;
12784;SDS011;6456;42.680;23.260;2023-07-13T13:44:42;6.25;;;4.60;;
12784;SDS011;6456;42.680;23.260;2023-07-13T13:47:17;9.25;;;4.40;;
12784;SDS011;6456;42.680;23.260;2023-07-13T13:49:54;6.20;;;4.22;;
12784;SDS011;6456;42.680;23.260;2023-07-13T13:52:21;6.95;;;4.45;;
12784;SDS011;6456;42.680;23.260;2023-07-13T13:54:48;7.30;;;4.60;;
12784;SDS011;6456;42.680;23.260;2023-07-13T13:57:15;7.90;;;4.70;;
12784;SDS011;6456;42.680;23.260;2023-07-13T13:59:44;6.38;;;4.28;;
12784;SDS011;6456;42.680;23.260;2023-07-13T14:02:16;6.22;;;4.45;;
12784;SDS011;6456;42.680;23.260;2023-07-13T14:04:50;5.03;;;4.40;;
12784;SDS011;6456;42.680;23.260;2023-07-13T14:07:21;7.25;;;4.05;;
12784;SDS011;6456;42.680;23.260;2023-07-13T14:09:48;9.40;;;4.32;;
12784;SDS011;6456;42.680;23.260;2023-07-13T14:12:15;4.97;;;4.25;;
12784;SDS011;6456;42.680;23.260;2023-07-13T14:14:42;6.88;;;4.43;;
12784;SDS011;6456;42.680;23.260;2023-07-13T14:17:14;7.03;;;4.47;;
12784;SDS011;6456;42.680;23.260;2023-07-13T14:19:47;8.68;;;4.68;;
12784;SDS011;6456;42.680;23.260;2023-07-13T14:22:21;4.85;;;4.38;;
12784;SDS011;6456;42.680;23.260;2023-07-13T14:24:48;4.32;;;3.92;;
12784;SDS011;6456;42.680;23.260;2023-07-13T14:27:15;7.43;;;4.75;;
12784;SDS011;6456;42.680;23.260;2023-07-13T14:29:43;5.05;;;4.57;;
12784;SDS011;6456;42.680;23.260;2023-07-13T14:32:11;7.95;;;4.88;;
12784;SDS011;6456;42.680;23.260;2023-07-13T14:34:38;7.25;;;4.50;;
12784;SDS011;6456;42.680;23.260;2023-07-13T14:37:11;5.55;;;4.93;;
12784;SDS011;6456;42.680;23.260;2023-07-13T14:39:41;7.57;;;4.68;;
12784;SDS011;6456;42.680;23.260;2023-07-13T14:42:09;5.93;;;4.53;;
12784;SDS011;6456;42.680;23.260;2023-07-13T14:44:37;7.38;;;4.80;;
12784;SDS011;6456;42.680;23.260;2023-07-13T14:47:06;6.97;;;4.53;;
12784;SDS011;6456;42.680;23.260;2023-07-13T14:49:35;5.13;;;4.53;;
12784;SDS011;6456;42.680;23.260;2023-07-13T14:52:08;8.82;;;4.82;;
12784;SDS011;6456;42.680;23.260;2023-07-13T14:54:38;6.97;;;4.25;;
12784;SDS011;6456;42.680;23.260;2023-07-13T14:57:08;6.88;;;4.75;;
12784;SDS011;6456;42.680;23.260;2023-07-13T14:59:35;6.68;;;4.88;;
12784;SDS011;6456;42.680;23.260;2023-07-13T15:02:02;11.60;;;5.50;;
12784;SDS011;6456;42.680;23.260;2023-07-13T15:04:40;10.82;;;4.63;;